createdAt,value
2022-08-26T00:01:46.403Z,26.68
2022-08-26T00:04:13.460Z,26.64
2022-08-26T00:06:42.654Z,26.62
2022-08-26T00:09:16.053Z,26.64
2022-08-26T00:11:44.474Z,26.62
2022-08-26T00:14:12.368Z,26.58
2022-08-26T00:16:41.046Z,26.61
2022-08-26T00:19:15.662Z,26.61
2022-08-26T00:21:42.298Z,26.61
2022-08-26T00:24:08.973Z,26.60
2022-08-26T00:26:36.285Z,26.60
2022-08-26T00:29:03.623Z,26.60
2022-08-26T00:31:32.046Z,26.61
2022-08-26T00:33:59.068Z,26.58
2022-08-26T00:36:29.741Z,26.60
2022-08-26T00:38:57.928Z,26.54
2022-08-26T00:41:24.632Z,26.54
2022-08-26T00:43:53.290Z,26.48
2022-08-26T00:46:26.116Z,26.44
2022-08-26T00:48:59.862Z,26.43
2022-08-26T00:51:29.642Z,26.43
2022-08-26T00:54:07.458Z,26.44
2022-08-26T00:56:40.819Z,26.48
2022-08-26T00:59:10.503Z,26.45
2022-08-26T01:01:38.143Z,26.41
2022-08-26T01:04:05.984Z,26.37
2022-08-26T01:06:32.990Z,26.26
2022-08-26T01:09:00.160Z,26.23
2022-08-26T01:11:27.695Z,26.22
2022-08-26T01:13:57.634Z,26.24
2022-08-26T01:16:27.425Z,26.16
2022-08-26T01:19:00.620Z,26.12
2022-08-26T01:22:05.567Z,26.12
2022-08-26T01:24:32.534Z,26.16
2022-08-26T01:27:05.245Z,26.19
2022-08-26T01:29:38.155Z,26.13
2022-08-26T01:32:08.860Z,26.17
2022-08-26T01:34:38.074Z,26.13
2022-08-26T01:37:18.365Z,26.16
2022-08-26T01:39:48.864Z,26.17
2022-08-26T01:42:17.352Z,26.14
2022-08-26T01:44:49.143Z,26.16
2022-08-26T01:47:18.156Z,26.12
2022-08-26T01:49:48.149Z,26.06
2022-08-26T01:52:23.062Z,26.05
2022-08-26T01:54:55.664Z,26.02
2022-08-26T01:57:24.844Z,26.03
2022-08-26T01:59:55.236Z,26.07
2022-08-26T02:02:22.515Z,26.10
2022-08-26T02:04:57.197Z,26.12
2022-08-26T02:07:26.649Z,26.14
2022-08-26T02:09:54.344Z,26.16
2022-08-26T02:12:21.661Z,26.14
2022-08-26T02:14:53.357Z,26.10
2022-08-26T02:17:23.403Z,26.09
2022-08-26T02:19:50.744Z,26.12
2022-08-26T02:22:21.500Z,26.12
2022-08-26T02:24:52.027Z,26.13
2022-08-26T02:27:25.392Z,26.03
2022-08-26T02:30:17.844Z,25.99
2022-08-26T02:32:44.599Z,26.02
2022-08-26T02:35:13.167Z,26.02
2022-08-26T02:37:44.942Z,25.95
2022-08-26T02:40:13.767Z,25.93
2022-08-26T02:42:41.394Z,25.92
2022-08-26T02:45:10.688Z,25.90
2022-08-26T02:47:37.561Z,25.90
2022-08-26T02:50:05.311Z,25.90
2022-08-26T02:52:32.032Z,25.92
2022-08-26T02:54:59.180Z,25.93
2022-08-26T02:57:28.550Z,25.97
2022-08-26T02:59:55.264Z,25.97
2022-08-26T03:02:21.914Z,25.97
2022-08-26T03:04:57.372Z,25.99
2022-08-26T03:07:27.653Z,25.96
2022-08-26T03:09:54.295Z,25.86
2022-08-26T03:12:21.028Z,25.88
2022-08-26T03:14:48.495Z,25.88
2022-08-26T03:17:16.059Z,25.88
2022-08-26T03:19:43.200Z,25.86
2022-08-26T03:22:12.099Z,25.84
2022-08-26T03:24:41.289Z,25.81
2022-08-26T03:27:13.379Z,25.75
2022-08-26T03:30:00.179Z,25.72
2022-08-26T03:32:27.853Z,25.72
2022-08-26T03:34:56.529Z,25.74
2022-08-26T03:37:23.444Z,25.72
2022-08-26T03:39:50.256Z,25.74
2022-08-26T03:42:17.607Z,25.71
2022-08-26T03:44:48.558Z,25.69
2022-08-26T03:47:15.864Z,25.68
2022-08-26T03:49:42.565Z,25.62
2022-08-26T03:52:10.544Z,25.65
2022-08-26T03:54:37.450Z,25.59
2022-08-26T03:57:04.506Z,25.58
2022-08-26T03:59:31.992Z,25.58
2022-08-26T04:01:58.666Z,25.58
2022-08-26T04:04:25.802Z,25.57
2022-08-26T04:06:58.487Z,25.62
2022-08-26T04:09:26.230Z,25.62
2022-08-26T04:11:53.766Z,25.55
2022-08-26T04:14:23.112Z,25.52
2022-08-26T04:16:53.237Z,25.55
2022-08-26T04:19:22.949Z,25.59
2022-08-26T04:21:53.355Z,25.58
2022-08-26T04:24:22.597Z,25.51
2022-08-26T04:26:49.570Z,25.51
2022-08-26T04:29:21.620Z,25.58
2022-08-26T04:31:48.523Z,25.57
2022-08-26T04:34:16.266Z,25.59
2022-08-26T04:36:44.619Z,25.61
2022-08-26T04:39:14.266Z,25.61
2022-08-26T04:41:40.886Z,25.65
2022-08-26T04:44:07.885Z,25.68
2022-08-26T04:46:35.452Z,25.67
2022-08-26T04:49:08.384Z,25.68
2022-08-26T04:51:36.315Z,25.72
2022-08-26T04:54:06.969Z,25.74
2022-08-26T04:56:40.044Z,25.75
2022-08-26T04:59:14.934Z,25.79
2022-08-26T05:01:46.293Z,25.75
2022-08-26T05:04:16.274Z,25.69
2022-08-26T05:06:45.527Z,25.67
2022-08-26T05:09:14.643Z,25.64
2022-08-26T05:11:42.073Z,25.67
2022-08-26T05:14:08.860Z,25.64
2022-08-26T05:16:35.572Z,25.62
2022-08-26T05:19:03.047Z,25.59
2022-08-26T05:21:29.757Z,25.59
2022-08-26T05:23:57.211Z,25.58
2022-08-26T05:26:28.425Z,25.52
2022-08-26T05:28:56.276Z,25.57
2022-08-26T05:31:27.904Z,25.57
2022-08-26T05:33:56.872Z,25.62
2022-08-26T05:36:26.971Z,25.55
2022-08-26T05:38:56.909Z,25.52
2022-08-26T05:41:34.269Z,25.48
2022-08-26T05:44:05.460Z,25.48
2022-08-26T05:46:32.210Z,25.51
2022-08-26T05:48:59.638Z,25.52
2022-08-26T05:51:26.924Z,25.57
2022-08-26T05:53:57.199Z,25.52
2022-08-26T05:56:26.226Z,25.51
2022-08-26T05:58:53.256Z,25.47
2022-08-26T06:01:24.174Z,25.42
2022-08-26T06:03:53.475Z,25.42
2022-08-26T06:06:28.335Z,25.47
2022-08-26T06:08:59.377Z,25.47
2022-08-26T06:11:28.240Z,25.50
2022-08-26T06:13:58.995Z,25.54
2022-08-26T06:16:30.444Z,25.59
2022-08-26T06:18:57.065Z,25.61
2022-08-26T06:21:29.086Z,25.62
2022-08-26T06:24:17.229Z,25.64
2022-08-26T06:26:50.498Z,25.67
2022-08-26T06:29:23.633Z,25.69
2022-08-26T06:31:52.767Z,25.69
2022-08-26T06:34:19.618Z,25.75
2022-08-26T06:36:47.380Z,25.78
2022-08-26T06:39:16.543Z,25.75
2022-08-26T06:41:45.099Z,25.74
2022-08-26T06:44:15.037Z,25.69
2022-08-26T06:46:44.272Z,25.71
2022-08-26T06:49:12.526Z,25.69
2022-08-26T06:51:40.929Z,25.67
2022-08-26T06:54:10.545Z,25.67
2022-08-26T06:56:41.971Z,25.68
2022-08-26T06:59:09.885Z,25.67
2022-08-26T07:01:44.987Z,25.69
2022-08-26T07:04:15.711Z,25.68
2022-08-26T07:06:49.080Z,25.72
2022-08-26T07:09:16.950Z,25.76
2022-08-26T07:11:44.922Z,25.79
2022-08-26T07:14:12.645Z,25.76
2022-08-26T07:16:41.253Z,25.69
2022-08-26T07:19:10.821Z,25.69
2022-08-26T07:21:40.444Z,25.68
2022-08-26T07:24:07.745Z,25.67
2022-08-26T07:26:34.819Z,25.68
2022-08-26T07:29:02.658Z,25.68
2022-08-26T07:31:39.121Z,25.68
2022-08-26T07:34:07.510Z,25.68
2022-08-26T07:36:34.973Z,25.67
2022-08-26T07:39:01.839Z,25.68
2022-08-26T07:43:57.007Z,25.72
2022-08-26T07:46:27.504Z,25.68
2022-08-26T07:48:57.997Z,25.69
2022-08-26T07:51:25.312Z,25.72
2022-08-26T07:53:53.198Z,25.75
2022-08-26T07:56:21.319Z,25.81
2022-08-26T07:58:51.459Z,25.81
2022-08-26T08:01:20.165Z,25.84
2022-08-26T08:03:50.522Z,25.86
2022-08-26T08:06:22.567Z,25.89
2022-08-26T08:08:54.589Z,25.96
2022-08-26T08:11:21.633Z,26.00
2022-08-26T08:13:49.850Z,26.05
2022-08-26T08:16:24.767Z,26.09
2022-08-26T08:18:53.503Z,26.12
2022-08-26T08:21:21.886Z,26.14
2022-08-26T08:23:51.892Z,26.20
2022-08-26T08:26:18.633Z,26.23
2022-08-26T08:28:48.117Z,26.29
2022-08-26T08:31:56.240Z,26.33
2022-08-26T08:34:15.679Z,26.39
2022-08-26T08:36:42.379Z,26.44
2022-08-26T08:39:09.284Z,26.50
2022-08-26T08:42:00.487Z,26.57
2022-08-26T08:44:29.267Z,26.69
2022-08-26T08:47:10.140Z,26.87
2022-08-26T08:49:36.880Z,26.94
2022-08-26T08:52:11.837Z,27.00
2022-08-26T08:54:38.661Z,27.05
2022-08-26T08:57:05.320Z,27.05
2022-08-26T08:59:35.253Z,27.07
2022-08-26T09:02:22.464Z,27.15
2022-08-26T09:05:07.335Z,27.20
2022-08-26T09:07:40.307Z,27.16
2022-08-26T09:10:37.576Z,27.17
2022-08-26T09:13:16.362Z,27.22
2022-08-26T09:15:56.527Z,27.25
2022-08-26T09:18:23.109Z,27.25
2022-08-26T09:21:03.549Z,27.33
2022-08-26T09:23:32.526Z,27.42
2022-08-26T09:26:02.237Z,27.44
2022-08-26T09:28:31.043Z,27.50
2022-08-26T09:31:08.023Z,27.44
2022-08-26T09:33:37.980Z,27.43
2022-08-26T09:36:17.019Z,27.46
2022-08-26T09:38:44.578Z,27.43
2022-08-26T09:41:33.376Z,27.60
2022-08-26T09:44:20.818Z,27.82
2022-08-26T09:46:55.659Z,28.05
2022-08-26T09:49:27.111Z,28.25
2022-08-26T09:52:14.858Z,28.27
2022-08-26T09:54:44.415Z,28.25
2022-08-26T09:57:19.157Z,28.23
2022-08-26T09:59:46.432Z,28.33
2022-08-26T10:02:29.515Z,28.44
2022-08-26T10:04:58.724Z,28.56
2022-08-26T10:07:50.839Z,28.74
2022-08-26T10:10:24.077Z,28.87
2022-08-26T10:13:04.056Z,29.01
2022-08-26T10:15:41.798Z,28.92
2022-08-26T10:18:34.196Z,28.92
2022-08-26T10:21:07.391Z,28.95
2022-08-26T10:23:42.754Z,28.98
2022-08-26T10:26:40.824Z,29.09
2022-08-26T10:29:13.691Z,29.18
2022-08-26T10:31:51.449Z,29.23
2022-08-26T10:34:19.219Z,29.19
2022-08-26T10:37:15.013Z,29.16
2022-08-26T10:40:05.524Z,29.12
2022-08-26T10:42:42.057Z,29.05
2022-08-26T10:45:32.326Z,29.02
2022-08-26T10:48:11.004Z,29.09
2022-08-26T10:50:43.648Z,29.11
2022-08-26T10:53:25.201Z,29.02
2022-08-26T10:56:25.461Z,29.01
2022-08-26T10:59:17.901Z,29.08
2022-08-26T11:02:24.649Z,29.19
2022-08-26T11:05:01.004Z,29.23
2022-08-26T11:07:41.287Z,29.28
2022-08-26T11:10:17.288Z,29.32
2022-08-26T11:12:49.407Z,29.33
2022-08-26T11:15:24.488Z,29.37
2022-08-26T11:17:51.560Z,29.43
2022-08-26T11:20:45.928Z,29.40
2022-08-26T11:23:13.732Z,29.39
2022-08-26T11:26:01.248Z,29.39
2022-08-26T11:28:33.954Z,29.43
2022-08-26T11:31:01.770Z,29.52
2022-08-26T11:33:44.007Z,29.62
2022-08-26T11:36:28.081Z,29.67
2022-08-26T11:38:55.119Z,29.78
2022-08-26T11:41:29.146Z,29.87
2022-08-26T11:43:59.504Z,29.87
2022-08-26T11:46:31.678Z,29.83
2022-08-26T11:49:07.243Z,29.83
2022-08-26T11:51:39.690Z,29.81
2022-08-26T11:54:13.786Z,29.84
2022-08-26T11:56:45.870Z,29.88
2022-08-26T11:59:17.715Z,29.84
2022-08-26T12:01:48.739Z,29.88
2022-08-26T12:04:43.275Z,29.88
2022-08-26T12:07:10.037Z,29.94
2022-08-26T12:09:53.014Z,29.96
2022-08-26T12:12:35.132Z,30.04
2022-08-26T12:15:19.196Z,30.05
2022-08-26T12:17:51.678Z,30.12
2022-08-26T12:20:56.017Z,30.15
2022-08-26T12:23:41.873Z,30.17
2022-08-26T12:26:22.631Z,30.18
2022-08-26T12:29:12.613Z,30.22
2022-08-26T12:31:48.039Z,30.19
2022-08-26T12:34:17.666Z,30.17
2022-08-26T12:36:48.952Z,30.12
2022-08-26T12:39:36.878Z,30.14
2022-08-26T12:42:22.872Z,30.15
2022-08-26T12:44:59.407Z,30.12
2022-08-26T12:47:43.203Z,30.12
2022-08-26T12:50:35.075Z,30.12
2022-08-26T12:53:10.630Z,30.19
2022-08-26T12:55:58.309Z,30.25
2022-08-26T12:58:28.034Z,30.24
2022-08-26T13:01:00.854Z,30.25
2022-08-26T13:03:35.360Z,30.28
2022-08-26T13:06:31.600Z,30.25
2022-08-26T13:08:59.849Z,30.24
2022-08-26T13:11:33.799Z,30.21
2022-08-26T13:14:11.993Z,30.22
2022-08-26T13:16:46.381Z,30.17
2022-08-26T13:19:19.106Z,30.18
2022-08-26T13:21:49.508Z,30.19
2022-08-26T13:24:36.270Z,30.22
2022-08-26T13:27:04.868Z,30.22
2022-08-26T13:29:31.849Z,30.22
2022-08-26T13:31:59.698Z,30.22
2022-08-26T13:34:27.287Z,30.24
2022-08-26T13:36:56.395Z,30.25
2022-08-26T13:39:23.951Z,30.27
2022-08-26T13:41:51.878Z,30.22
2022-08-26T13:44:19.119Z,30.21
2022-08-26T13:46:46.433Z,30.17
2022-08-26T13:49:13.168Z,30.17
2022-08-26T13:51:40.033Z,30.17
2022-08-26T13:54:07.199Z,30.17
2022-08-26T13:56:34.830Z,30.18
2022-08-26T13:59:03.065Z,30.21
2022-08-26T14:01:31.565Z,30.22
2022-08-26T14:03:58.742Z,30.25
2022-08-26T14:06:25.709Z,30.22
2022-08-26T14:08:52.427Z,30.27
2022-08-26T14:11:21.547Z,30.29
2022-08-26T14:13:48.375Z,30.35
2022-08-26T14:16:22.984Z,30.35
2022-08-26T14:18:51.025Z,30.33
2022-08-26T14:21:18.527Z,30.36
2022-08-26T14:23:45.392Z,30.39
2022-08-26T14:26:21.417Z,30.43
2022-08-26T14:28:55.378Z,30.46
2022-08-26T14:31:24.019Z,30.52
2022-08-26T14:33:50.937Z,30.52
2022-08-26T14:36:31.549Z,30.55
2022-08-26T14:39:05.877Z,30.55
2022-08-26T14:41:34.542Z,30.56
2022-08-26T14:44:08.085Z,30.55
2022-08-26T14:46:43.540Z,30.56
2022-08-26T14:49:10.904Z,30.57
2022-08-26T14:51:38.222Z,30.56
2022-08-26T14:54:14.301Z,30.55
2022-08-26T14:56:54.139Z,30.56
2022-08-26T14:59:26.982Z,30.57
2022-08-26T15:01:54.859Z,30.60
2022-08-26T15:04:23.157Z,30.65
2022-08-26T15:06:54.735Z,30.69
2022-08-26T15:09:22.331Z,30.69
2022-08-26T15:11:49.220Z,30.70
2022-08-26T15:14:19.505Z,30.73
2022-08-26T15:16:52.318Z,30.73
2022-08-26T15:19:20.523Z,30.76
2022-08-26T15:21:47.792Z,30.73
2022-08-26T15:24:16.736Z,30.73
2022-08-26T15:26:44.286Z,30.72
2022-08-26T15:29:11.057Z,30.73
2022-08-26T15:31:37.867Z,30.73
2022-08-26T15:34:09.541Z,30.69
2022-08-26T15:36:39.027Z,30.67
2022-08-26T15:39:07.574Z,30.62
2022-08-26T15:41:35.155Z,30.59
2022-08-26T15:44:03.421Z,30.55
2022-08-26T15:46:31.624Z,30.53
2022-08-26T15:48:58.430Z,30.52
2022-08-26T15:51:26.415Z,30.46
2022-08-26T15:53:56.500Z,30.43
2022-08-26T15:56:28.957Z,30.40
2022-08-26T15:58:56.249Z,30.39
2022-08-26T16:01:27.758Z,30.39
2022-08-26T16:03:55.570Z,30.40
2022-08-26T16:06:29.129Z,30.48
2022-08-26T16:08:56.602Z,30.46
2022-08-26T16:11:24.053Z,30.49
2022-08-26T16:13:50.910Z,30.51
2022-08-26T16:16:18.285Z,30.56
2022-08-26T16:18:45.761Z,30.57
2022-08-26T16:21:21.916Z,30.62
2022-08-26T16:23:48.983Z,30.63
2022-08-26T16:26:18.813Z,30.63
2022-08-26T16:28:45.817Z,30.67
2022-08-26T16:31:12.927Z,30.67
2022-08-26T16:33:40.051Z,30.70
2022-08-26T16:36:07.624Z,30.70
2022-08-26T16:38:34.935Z,30.72
2022-08-26T16:41:02.217Z,30.70
2022-08-26T16:43:28.988Z,30.72
2022-08-26T16:45:56.209Z,30.70
2022-08-26T16:48:23.852Z,30.60
2022-08-26T16:50:51.913Z,30.59
2022-08-26T16:53:19.203Z,30.59
2022-08-26T16:55:50.847Z,30.56
2022-08-26T16:58:18.653Z,30.56
2022-08-26T17:00:45.507Z,30.56
2022-08-26T17:03:12.493Z,30.52
2022-08-26T17:05:39.349Z,30.49
2022-08-26T17:08:06.661Z,30.48
2022-08-26T17:10:33.947Z,30.48
2022-08-26T17:13:00.913Z,30.42
2022-08-26T17:15:27.998Z,30.40
2022-08-26T17:17:55.339Z,30.39
2022-08-26T17:20:23.553Z,30.33
2022-08-26T17:22:52.315Z,30.36
2022-08-26T17:25:28.556Z,30.33
2022-08-26T17:30:23.907Z,30.27
2022-08-26T17:32:50.902Z,30.25
2022-08-26T17:35:18.673Z,30.22
2022-08-26T17:37:46.494Z,30.18
2022-08-26T17:40:16.229Z,30.12
2022-08-26T17:42:43.090Z,30.11
2022-08-26T17:45:10.916Z,30.04
2022-08-26T17:47:38.187Z,29.97
2022-08-26T17:50:07.500Z,29.96
2022-08-26T17:52:34.119Z,29.94
2022-08-26T17:55:00.783Z,29.90
2022-08-26T17:57:27.811Z,29.90
2022-08-26T17:59:56.898Z,29.88
2022-08-26T18:02:24.031Z,29.85
2022-08-26T18:04:50.777Z,29.84
2022-08-26T18:07:18.079Z,29.77
2022-08-26T18:09:45.271Z,29.77
2022-08-26T18:12:12.454Z,29.76
2022-08-26T18:14:39.140Z,29.74
2022-08-26T18:17:05.973Z,29.72
2022-08-26T18:19:32.719Z,29.70
2022-08-26T18:21:59.448Z,29.67
2022-08-26T18:24:28.694Z,29.64
2022-08-26T18:26:55.361Z,29.64
2022-08-26T18:29:22.146Z,29.64
2022-08-26T18:31:49.661Z,29.62
2022-08-26T18:34:17.009Z,29.60
2022-08-26T18:36:44.102Z,29.56
2022-08-26T18:39:12.473Z,29.57
2022-08-26T18:41:48.688Z,29.57
2022-08-26T18:44:17.669Z,29.52
2022-08-26T18:46:45.686Z,29.52
2022-08-26T18:49:14.366Z,29.47
2022-08-26T18:51:43.015Z,29.50
2022-08-26T18:54:10.610Z,29.49
2022-08-26T18:56:39.240Z,29.46
2022-08-26T18:59:08.274Z,29.45
2022-08-26T19:01:36.158Z,29.43
2022-08-26T19:04:04.807Z,29.43
2022-08-26T19:06:33.386Z,29.43
2022-08-26T19:09:00.537Z,29.42
2022-08-26T19:11:31.635Z,29.39
2022-08-26T19:14:03.215Z,29.37
2022-08-26T19:16:30.841Z,29.36
2022-08-26T19:18:59.109Z,29.36
2022-08-26T19:21:25.779Z,29.36
2022-08-26T19:23:59.980Z,29.33
2022-08-26T19:26:28.026Z,29.30
2022-08-26T19:28:54.688Z,29.30
2022-08-26T19:31:21.952Z,29.29
2022-08-26T19:33:48.760Z,29.29
2022-08-26T19:36:21.807Z,29.29
2022-08-26T19:38:48.909Z,29.26
2022-08-26T19:41:18.367Z,29.23
2022-08-26T19:43:46.146Z,29.22
2022-08-26T19:46:17.500Z,29.23
2022-08-26T19:48:45.015Z,29.15
2022-08-26T19:51:16.976Z,29.15
2022-08-26T19:53:45.257Z,29.15
2022-08-26T19:56:13.128Z,29.12
2022-08-26T19:58:40.598Z,29.11
2022-08-26T20:01:08.665Z,29.07
2022-08-26T20:03:36.190Z,29.05
2022-08-26T20:06:05.338Z,29.04
2022-08-26T20:08:33.810Z,29.02
2022-08-26T20:11:02.208Z,29.02
2022-08-26T20:13:28.886Z,28.97
2022-08-26T20:15:55.541Z,28.97
2022-08-26T20:18:41.121Z,28.94
2022-08-26T20:21:26.390Z,28.91
2022-08-26T20:24:09.354Z,28.87
2022-08-26T20:26:37.945Z,28.84
2022-08-26T20:29:06.744Z,28.86
2022-08-26T20:31:35.392Z,28.86
2022-08-26T20:34:02.576Z,28.84
2022-08-26T20:36:30.152Z,28.84
2022-08-26T20:38:57.278Z,28.84
2022-08-26T20:41:25.869Z,28.81
2022-08-26T20:43:53.421Z,28.78
2022-08-26T20:46:24.103Z,28.75
2022-08-26T20:48:52.239Z,28.71
2022-08-26T20:51:19.894Z,28.68
2022-08-26T20:53:47.320Z,28.63
2022-08-26T20:56:16.007Z,28.56
2022-08-26T20:58:43.311Z,28.54
2022-08-26T21:01:22.249Z,28.53
2022-08-26T21:03:52.248Z,28.47
2022-08-26T21:06:19.672Z,28.43
2022-08-26T21:08:48.313Z,28.39
2022-08-26T21:11:15.962Z,28.35
2022-08-26T21:14:03.968Z,28.36
2022-08-26T21:16:30.003Z,28.36
2022-08-26T21:18:56.912Z,28.37
2022-08-26T21:21:30.114Z,28.29
2022-08-26T21:23:57.171Z,28.29
2022-08-26T21:26:24.314Z,28.27
2022-08-26T21:28:51.840Z,28.27
2022-08-26T21:31:21.613Z,28.27
2022-08-26T21:33:48.523Z,28.22
2022-08-26T21:36:15.441Z,28.15
2022-08-26T21:38:42.840Z,28.12
2022-08-26T21:41:13.012Z,28.08
2022-08-26T21:43:42.221Z,28.09
2022-08-26T21:46:14.709Z,28.06
2022-08-26T21:48:47.609Z,28.05
2022-08-26T21:51:19.158Z,28.05
2022-08-26T21:53:46.095Z,28.04
2022-08-26T21:56:16.079Z,28.04
2022-08-26T21:58:43.179Z,27.98
2022-08-26T22:01:12.720Z,27.95
2022-08-26T22:03:47.354Z,27.88
2022-08-26T22:06:16.636Z,27.87
2022-08-26T22:08:43.808Z,27.84
2022-08-26T22:11:10.941Z,27.84
2022-08-26T22:13:39.683Z,27.84
2022-08-26T22:16:07.689Z,27.80
2022-08-26T22:18:35.671Z,27.78
2022-08-26T22:21:06.724Z,27.77
2022-08-26T22:23:35.398Z,27.78
2022-08-26T22:26:02.369Z,27.76
2022-08-26T22:28:29.110Z,27.71
2022-08-26T22:30:55.885Z,27.71
2022-08-26T22:33:23.284Z,27.68
2022-08-26T22:35:52.840Z,27.64
2022-08-26T22:38:21.063Z,27.60
2022-08-26T22:40:51.438Z,27.55
2022-08-26T22:43:19.137Z,27.50
2022-08-26T22:45:48.449Z,27.50
2022-08-26T22:48:17.893Z,27.42
2022-08-26T22:50:46.817Z,27.42
2022-08-26T22:53:15.112Z,27.42
2022-08-26T22:55:43.546Z,27.42
2022-08-26T22:58:12.338Z,27.40
2022-08-26T23:00:40.190Z,27.33
2022-08-26T23:03:07.981Z,27.33
2022-08-26T23:05:35.303Z,27.26
2022-08-26T23:08:03.100Z,27.25
2022-08-26T23:10:30.138Z,27.23
2022-08-26T23:12:57.628Z,27.20
2022-08-26T23:15:24.866Z,27.15
2022-08-26T23:17:55.881Z,27.12
2022-08-26T23:20:26.521Z,27.06
2022-08-26T23:22:53.677Z,27.07
2022-08-26T23:25:20.752Z,27.07
2022-08-26T23:27:47.848Z,27.06
2022-08-26T23:30:21.325Z,27.03
2022-08-26T23:32:48.515Z,27.00
2022-08-26T23:35:16.267Z,26.98
2022-08-26T23:37:46.165Z,26.94
2022-08-26T23:40:32.386Z,26.89
2022-08-26T23:43:03.428Z,26.81
2022-08-26T23:45:30.958Z,26.78
2022-08-26T23:47:58.480Z,26.72
2022-08-26T23:50:46.636Z,26.69
2022-08-26T23:53:19.561Z,26.68
2022-08-26T23:55:48.955Z,26.71
2022-08-26T23:58:17.207Z,26.71
